Time;durP1;ratioP1;P1;durP2;ratioP2;P2;SDS_P1;SDS_P2;PMS_P1;PMS_P2;Temp;Humidity;BMP_temperature;BMP_pressure;BME280_temperature;BME280_humidity;BME280_pressure;Samples;Min_cycle;Max_cycle;Signal;HPM_P1;HPM_P2
2021/12/09 00:00:02;;;;;;;9.40;6.03;;;;;;;5.43;69.20;98750.31;5137530;27;20259;-88
2021/12/09 00:02:31;;;;;;;28.30;8.47;;;;;;;5.25;69.04;98753.59;5136933;27;20209;-87
2021/12/09 00:04:57;;;;;;;25.73;7.37;;;;;;;5.12;69.52;98751.50;5136905;27;20176;-87
2021/12/09 00:07:24;;;;;;;24.87;8.10;;;;;;;5.13;69.66;98761.88;5136088;27;20204;-87
2021/12/09 00:09:50;;;;;;;14.27;6.17;;;;;;;5.12;69.76;98764.50;5137260;27;20195;-87
2021/12/09 00:12:17;;;;;;;16.27;6.97;;;;;;;5.11;69.80;98757.63;5118663;27;20636;-87
2021/12/09 00:14:42;;;;;;;12.03;5.97;;;;;;;5.16;69.58;98766.09;5136710;27;20172;-87
2021/12/09 00:17:09;;;;;;;12.93;6.40;;;;;;;5.19;69.72;98766.00;5136692;27;20634;-88
2021/12/09 00:19:36;;;;;;;12.73;6.07;;;;;;;5.25;69.11;98765.75;5136683;27;20170;-88
2021/12/09 00:22:04;;;;;;;15.73;5.10;;;;;;;5.06;69.78;98775.97;5136608;27;20616;-87
2021/12/09 00:24:30;;;;;;;13.87;5.27;;;;;;;4.97;69.96;98776.31;5118283;27;20246;-88
2021/12/09 00:26:55;;;;;;;8.07;4.53;;;;;;;4.66;71.28;98778.28;5136781;27;20171;-88
2021/12/09 00:29:21;;;;;;;8.37;4.77;;;;;;;4.74;71.74;98781.47;5136682;27;20542;-87
2021/12/09 00:31:49;;;;;;;13.27;5.73;;;;;;;4.92;71.25;98784.25;5118280;27;20330;-87
2021/12/09 00:34:16;;;;;;;19.17;6.83;;;;;;;5.05;71.19;98800.25;5136331;27;20178;-88
2021/12/09 00:36:54;;;;;;;12.57;5.97;;;;;;;5.09;70.47;98793.19;5136322;27;20175;-88
2021/12/09 00:39:20;;;;;;;16.37;7.13;;;;;;;5.10;69.61;98794.88;5136555;27;20242;-87
2021/12/09 00:41:45;;;;;;;12.37;5.23;;;;;;;5.08;69.27;98800.16;5136189;27;20313;-88
2021/12/09 00:44:11;;;;;;;16.97;5.63;;;;;;;5.06;69.28;98799.34;5118044;27;20182;-87
2021/12/09 00:46:38;;;;;;;15.33;6.23;;;;;;;5.00;68.98;98799.56;5136092;27;20179;-87
2021/12/09 00:49:04;;;;;;;8.70;4.43;;;;;;;4.87;68.82;98799.13;5135956;27;20675;-87
2021/12/09 00:51:29;;;;;;;10.83;4.93;;;;;;;4.77;68.77;98795.16;5135991;27;20171;-87
2021/12/09 00:53:54;;;;;;;10.57;4.80;;;;;;;4.75;69.18;98807.34;5135957;27;20232;-88
2021/12/09 00:56:20;;;;;;;10.83;4.27;;;;;;;4.85;69.06;98798.34;5117813;27;20171;-87
2021/12/09 00:58:45;;;;;;;13.10;5.50;;;;;;;4.93;68.68;98800.66;5136415;27;20184;-88
2021/12/09 01:01:12;;;;;;;6.40;3.37;;;;;;;4.96;69.01;98801.41;5136063;27;20168;-87
2021/12/09 01:03:39;;;;;;;12.20;4.37;;;;;;;4.99;68.83;98816.03;5135739;27;20258;-88
2021/12/09 01:06:04;;;;;;;8.17;4.07;;;;;;;4.93;68.91;98811.06;5117692;27;20611;-87
2021/12/09 01:08:30;;;;;;;8.87;3.93;;;;;;;4.84;68.65;98816.59;5135652;27;20183;-87
2021/12/09 01:10:56;;;;;;;11.10;4.03;;;;;;;4.89;68.42;98819.88;5117444;27;20852;-88
2021/12/09 01:13:22;;;;;;;10.30;3.77;;;;;;;4.94;68.90;98825.75;5117650;27;20178;-87
2021/12/09 01:15:47;;;;;;;13.37;5.80;;;;;;;4.90;68.64;98822.41;5117473;27;20192;-87
2021/12/09 01:18:13;;;;;;;7.37;3.67;;;;;;;4.73;68.71;98819.56;5116354;27;20619;-87
2021/12/09 01:20:39;;;;;;;6.53;4.03;;;;;;;4.77;68.96;98817.72;5135688;27;20186;-88
2021/12/09 01:23:04;;;;;;;8.07;3.87;;;;;;;4.77;69.04;98828.09;5135231;27;20198;-87
2021/12/09 01:25:37;;;;;;;4.57;2.93;;;;;;;4.68;70.02;98818.88;5135650;27;20526;-87
2021/12/09 01:28:07;;;;;;;9.20;4.03;;;;;;;4.55;71.34;98814.97;5135573;27;20167;-87
2021/12/09 01:30:33;;;;;;;9.87;5.10;;;;;;;4.60;72.05;98817.41;5135495;27;20283;-88
2021/12/09 01:32:59;;;;;;;6.57;3.93;;;;;;;4.69;71.58;98815.34;5117134;27;20565;-87
2021/12/09 01:35:33;;;;;;;6.50;3.57;;;;;;;4.72;71.21;98811.78;5117059;27;20175;-87
2021/12/09 01:38:02;;;;;;;6.23;3.33;;;;;;;4.73;71.57;98803.13;5135699;27;20159;-87
2021/12/09 01:40:29;;;;;;;11.37;4.77;;;;;;;4.86;70.81;98804.38;5135052;27;20160;-87
2021/12/09 01:42:56;;;;;;;12.83;6.97;;;;;;;4.96;70.32;98805.75;5135000;27;20175;-87
2021/12/09 01:45:23;;;;;;;11.90;6.07;;;;;;;4.88;69.22;98807.78;5135239;27;20215;-87
2021/12/09 01:47:48;;;;;;;10.40;4.83;;;;;;;4.74;68.62;98805.66;5134882;27;20179;-88
2021/12/09 01:50:15;;;;;;;7.77;3.87;;;;;;;4.76;68.32;98803.03;5134763;27;20199;-87
2021/12/09 01:52:41;;;;;;;13.03;4.77;;;;;;;4.72;68.43;98806.59;5116762;27;20225;-87
2021/12/09 01:55:08;;;;;;;12.37;4.33;;;;;;;4.74;67.92;98799.63;5116661;27;20186;-87
2021/12/09 01:57:34;;;;;;;12.87;4.77;;;;;;;4.66;67.75;98802.50;5134759;27;20502;-87
2021/12/09 02:00:00;;;;;;;8.63;4.83;;;;;;;4.61;67.87;98804.38;5116663;27;20668;-87
2021/12/09 02:02:25;;;;;;;19.37;5.80;;;;;;;4.61;67.50;98806.97;5135222;27;20186;-87
2021/12/09 02:04:50;;;;;;;10.33;4.80;;;;;;;4.69;67.63;98807.56;5116597;27;20179;-87
2021/12/09 02:07:16;;;;;;;6.73;3.60;;;;;;;4.67;68.06;98818.91;5116541;27;20194;-87
2021/12/09 02:09:42;;;;;;;8.73;4.13;;;;;;;4.71;67.52;98815.31;5134476;27;20550;-87
2021/12/09 02:12:08;;;;;;;13.03;5.20;;;;;;;4.75;67.24;98812.56;5116466;27;20178;-87
2021/12/09 02:14:34;;;;;;;15.13;4.67;;;;;;;4.72;66.78;98817.00;5134476;27;20178;-87
2021/12/09 02:17:00;;;;;;;10.10;4.63;;;;;;;4.58;66.69;98821.81;5134482;27;20187;-86
2021/12/09 02:19:25;;;;;;;8.47;4.30;;;;;;;4.56;66.98;98826.22;5116302;27;20245;-86
2021/12/09 02:21:51;;;;;;;6.70;4.53;;;;;;;4.49;66.80;98827.31;5134976;27;20199;-86
2021/12/09 02:24:17;;;;;;;5.40;3.57;;;;;;;4.50;66.79;98826.41;5116110;27;20263;-87
2021/12/09 02:26:46;;;;;;;11.33;4.23;;;;;;;4.42;67.40;98826.66;5134340;27;20254;-86
2021/12/09 02:29:14;;;;;;;8.50;3.93;;;;;;;4.29;67.33;98826.22;5133903;27;20207;-86
2021/12/09 02:31:42;;;;;;;9.87;4.67;;;;;;;4.25;67.52;98816.84;5134304;27;20236;-86
2021/12/09 02:34:09;;;;;;;5.03;3.23;;;;;;;4.19;67.80;98808.41;5134242;27;20249;-86
2021/12/09 02:36:38;;;;;;;5.03;3.37;;;;;;;4.21;68.47;98806.63;5116154;28;20179;-87
2021/12/09 02:39:06;;;;;;;7.00;3.00;;;;;;;4.12;68.61;98799.97;5134214;28;20251;-86
2021/12/09 02:41:33;;;;;;;7.27;2.57;;;;;;;4.20;69.09;98803.16;5134191;28;20167;-86
2021/12/09 02:44:02;;;;;;;6.80;3.63;;;;;;;4.27;69.40;98803.84;5116048;28;20176;-86
2021/12/09 02:46:29;;;;;;;8.70;4.33;;;;;;;4.32;69.10;98802.75;5134112;28;20166;-86
2021/12/09 02:48:55;;;;;;;6.53;3.77;;;;;;;4.29;68.64;98797.69;5134036;28;20175;-87
2021/12/09 02:51:21;;;;;;;7.27;3.10;;;;;;;4.31;68.70;98798.47;5115929;28;20179;-86
2021/12/09 02:53:46;;;;;;;7.03;2.93;;;;;;;4.26;68.50;98791.75;5134130;28;20616;-87
2021/12/09 02:56:12;;;;;;;7.47;3.60;;;;;;;4.26;68.68;98799.53;5134061;28;20175;-86
2021/12/09 02:58:38;;;;;;;6.20;3.20;;;;;;;4.29;68.57;98809.81;5133997;28;20641;-86
2021/12/09 03:01:16;;;;;;;6.60;3.03;;;;;;;4.17;67.99;98794.63;5115870;28;20545;-87
2021/12/09 03:03:52;;;;;;;6.97;4.03;;;;;;;4.01;68.93;98796.84;5115962;28;20299;-86
2021/12/09 03:06:20;;;;;;;14.60;6.10;;;;;;;4.09;69.04;98794.88;5115890;28;20167;-86
2021/12/09 03:08:46;;;;;;;5.60;3.63;;;;;;;4.22;68.90;98787.53;5134517;28;20514;-86
2021/12/09 03:11:15;;;;;;;8.13;4.30;;;;;;;4.24;68.73;98786.63;5133828;28;20204;-86
2021/12/09 03:13:43;;;;;;;5.00;2.40;;;;;;;4.25;68.76;98787.44;5115793;28;20167;-86
2021/12/09 03:16:09;;;;;;;4.57;2.70;;;;;;;4.20;68.75;98782.41;5134111;28;20182;-86
2021/12/09 03:18:50;;;;;;;4.97;2.57;;;;;;;4.14;68.16;98782.59;5133842;28;20173;-86
2021/12/09 03:21:18;;;;;;;6.40;3.07;;;;;;;4.14;68.87;98794.75;5134466;28;20155;-87
2021/12/09 03:23:44;;;;;;;3.80;1.87;;;;;;;4.09;68.27;98792.28;5133678;28;20708;-86
2021/12/09 03:26:10;;;;;;;10.60;2.13;;;;;;;3.97;68.52;98786.66;5133767;28;20179;-87
2021/12/09 03:28:36;;;;;;;5.63;3.20;;;;;;;4.03;68.43;98795.09;5133766;28;20225;-86
2021/12/09 03:31:01;;;;;;;4.43;3.17;;;;;;;4.08;68.45;98790.59;5133669;28;20660;-86
2021/12/09 03:33:27;;;;;;;5.77;3.23;;;;;;;4.11;68.23;98790.50;5133675;28;20181;-86
2021/12/09 03:35:57;;;;;;;8.73;2.20;;;;;;;4.07;68.61;98795.81;5134205;28;20163;-87
2021/12/09 03:38:23;;;;;;;3.93;2.07;;;;;;;3.98;68.39;98794.41;5115637;28;20258;-86
2021/12/09 03:40:49;;;;;;;10.80;4.83;;;;;;;4.00;68.87;98796.91;5133606;27;20210;-87
2021/12/09 03:43:14;;;;;;;3.33;2.03;;;;;;;4.10;68.61;98796.59;5137537;27;20185;-86
2021/12/09 03:45:39;;;;;;;10.30;3.60;;;;;;;4.19;67.78;98798.03;5119487;27;20178;-86
2021/12/09 03:48:05;;;;;;;4.90;2.97;;;;;;;4.16;67.77;98806.78;5119153;27;20174;-86
2021/12/09 03:50:30;;;;;;;4.67;2.30;;;;;;;3.95;68.79;98809.19;5137145;27;20199;-87
2021/12/09 03:52:56;;;;;;;2.93;2.53;;;;;;;3.96;68.82;98814.31;5137430;27;20175;-86
2021/12/09 03:55:21;;;;;;;4.90;2.53;;;;;;;3.85;69.42;98811.22;5119010;27;20191;-86
2021/12/09 03:57:47;;;;;;;6.20;2.27;;;;;;;3.72;69.08;98809.91;5137099;27;20167;-86
2021/12/09 04:00:13;;;;;;;6.87;2.77;;;;;;;3.70;69.25;98807.34;5118957;27;20652;-86
2021/12/09 04:02:39;;;;;;;7.63;3.57;;;;;;;3.78;69.50;98799.31;5136973;27;20179;-86
2021/12/09 04:05:06;;;;;;;5.63;2.77;;;;;;;3.82;69.65;98795.75;5118847;27;20650;-86
2021/12/09 04:07:32;;;;;;;7.63;3.23;;;;;;;3.79;69.02;98795.84;5137158;27;20171;-86
2021/12/09 04:09:58;;;;;;;4.90;2.47;;;;;;;3.78;68.99;98799.31;5137064;27;20205;-87
2021/12/09 04:12:23;;;;;;;8.80;4.00;;;;;;;3.79;69.19;98803.63;5118681;27;20620;-86
2021/12/09 04:14:49;;;;;;;5.97;2.93;;;;;;;3.87;68.99;98809.44;5118654;27;20163;-87
2021/12/09 04:17:15;;;;;;;6.70;3.27;;;;;;;3.91;69.26;98803.22;5137029;27;20203;-86
2021/12/09 04:19:46;;;;;;;5.57;2.93;;;;;;;3.87;68.71;98799.06;5118598;27;20599;-87
2021/12/09 04:22:17;;;;;;;7.17;3.77;;;;;;;3.95;68.47;98797.06;5136959;27;20151;-86
2021/12/09 04:24:42;;;;;;;5.53;2.83;;;;;;;3.95;68.39;98798.81;5118342;27;20190;-87
2021/12/09 04:27:08;;;;;;;5.20;2.57;;;;;;;3.91;68.82;98813.59;5136530;27;20163;-86
2021/12/09 04:29:33;;;;;;;6.93;2.33;;;;;;;3.86;68.82;98807.72;5136413;27;20671;-86
2021/12/09 04:31:59;;;;;;;7.30;3.67;;;;;;;3.74;68.79;98810.69;5136710;27;20489;-86
2021/12/09 04:34:24;;;;;;;6.60;2.63;;;;;;;3.81;68.63;98814.78;5136403;27;20537;-86
2021/12/09 04:36:50;;;;;;;7.57;2.83;;;;;;;3.84;68.80;98816.44;5118245;27;20186;-87
2021/12/09 04:39:16;;;;;;;4.53;2.30;;;;;;;3.73;68.58;98821.94;5118443;27;20274;-86
2021/12/09 04:41:41;;;;;;;7.70;3.63;;;;;;;3.61;69.39;98827.50;5136541;27;20164;-86
2021/12/09 04:44:08;;;;;;;9.97;5.33;;;;;;;3.56;69.97;98816.44;5136487;27;20179;-86
2021/12/09 04:46:36;;;;;;;8.97;3.83;;;;;;;3.58;69.42;98818.09;5136138;27;20253;-86
2021/12/09 04:49:02;;;;;;;12.53;4.60;;;;;;;3.64;69.67;98823.06;5117910;27;20533;-86
2021/12/09 04:51:27;;;;;;;9.57;3.63;;;;;;;3.77;69.88;98820.97;5136034;27;20163;-86
2021/12/09 04:53:53;;;;;;;6.50;3.37;;;;;;;3.73;69.01;98812.44;5117616;27;20637;-86
2021/12/09 04:56:18;;;;;;;11.70;4.93;;;;;;;3.72;69.47;98820.28;5117851;27;20175;-86
2021/12/09 04:58:44;;;;;;;7.73;3.87;;;;;;;3.78;68.96;98834.75;5117812;27;20659;-86
2021/12/09 05:01:09;;;;;;;11.00;3.63;;;;;;;3.83;68.79;98823.34;5135843;27;20607;-86
2021/12/09 05:03:35;;;;;;;7.30;3.67;;;;;;;3.86;69.02;98832.78;5117774;27;20231;-86
2021/12/09 05:06:01;;;;;;;8.87;3.53;;;;;;;3.82;69.49;98839.81;5136289;27;20183;-87
2021/12/09 05:08:29;;;;;;;6.67;3.23;;;;;;;3.91;68.63;98836.94;5117639;27;20522;-86
2021/12/09 05:11:07;;;;;;;10.60;5.10;;;;;;;3.81;68.87;98843.31;5135584;27;20284;-87
2021/12/09 05:13:35;;;;;;;10.03;3.83;;;;;;;3.77;68.64;98848.63;5135918;27;20151;-86
2021/12/09 05:16:02;;;;;;;9.43;4.90;;;;;;;3.66;69.23;98860.16;5135835;27;20178;-86
2021/12/09 05:18:31;;;;;;;5.67;3.07;;;;;;;3.68;69.49;98862.72;5135496;27;20171;-86
2021/12/09 05:20:57;;;;;;;11.20;5.13;;;;;;;3.69;69.36;98861.81;5135730;27;20190;-86
2021/12/09 05:23:24;;;;;;;4.73;3.00;;;;;;;3.74;69.24;98849.56;5117274;27;20652;-87
2021/12/09 05:25:50;;;;;;;8.57;4.40;;;;;;;3.74;68.96;98859.94;5117226;27;20543;-86
2021/12/09 05:28:17;;;;;;;13.27;4.53;;;;;;;3.68;69.43;98854.94;5117226;27;20167;-86
2021/12/09 05:33:28;;;;;;;12.13;4.80;;;;;;;3.66;69.32;98854.13;5135801;27;20555;-86
2021/12/09 05:35:54;;;;;;;6.17;3.70;;;;;;;3.63;69.80;98854.22;5117334;27;20171;-86
2021/12/09 05:38:20;;;;;;;7.93;4.03;;;;;;;3.52;70.76;98844.16;5135430;27;20254;-86
2021/12/09 05:40:47;;;;;;;15.10;6.00;;;;;;;3.58;70.56;98843.13;5135357;27;20199;-86
2021/12/09 05:43:13;;;;;;;6.33;4.07;;;;;;;3.74;70.69;98841.81;5116927;27;20178;-86
2021/12/09 05:45:38;;;;;;;13.70;6.73;;;;;;;3.68;70.29;98849.75;5134985;27;20182;-86
2021/12/09 05:48:07;;;;;;;9.43;5.17;;;;;;;3.74;70.73;98852.16;5116884;27;20179;-86
2021/12/09 05:50:33;;;;;;;10.77;3.30;;;;;;;3.75;70.73;98856.44;5116824;27;20195;-86
2021/12/09 05:52:58;;;;;;;10.20;4.50;;;;;;;3.65;70.74;98857.59;5116800;27;20181;-86
2021/12/09 05:55:23;;;;;;;9.40;5.13;;;;;;;3.70;70.77;98863.50;5135090;27;20500;-86
2021/12/09 05:57:49;;;;;;;5.87;3.13;;;;;;;3.83;70.59;98856.19;5134763;27;20177;-85
2021/12/09 06:00:15;;;;;;;12.87;5.23;;;;;;;3.88;70.33;98868.13;5116652;27;20163;-86
2021/12/09 06:02:40;;;;;;;12.03;4.47;;;;;;;3.86;70.31;98869.94;5116643;27;20283;-86
2021/12/09 06:05:06;;;;;;;11.33;5.50;;;;;;;3.89;69.55;98869.84;5116312;27;20639;-86
2021/12/09 06:07:31;;;;;;;12.93;6.30;;;;;;;3.92;69.76;98861.97;5134574;27;20235;-85
2021/12/09 06:09:59;;;;;;;24.80;7.97;;;;;;;3.97;69.20;98877.38;5134512;27;20182;-86
2021/12/09 06:12:25;;;;;;;25.37;11.27;;;;;;;4.01;69.28;98874.66;5116478;27;20194;-86
2021/12/09 06:14:50;;;;;;;19.40;7.73;;;;;;;4.04;68.98;98873.72;5134533;27;20207;-86
2021/12/09 06:17:16;;;;;;;27.23;9.90;;;;;;;4.09;68.98;98877.00;5116729;27;20178;-86
2021/12/09 06:19:41;;;;;;;46.27;16.20;;;;;;;4.08;68.99;98864.97;5134434;27;20228;-86
2021/12/09 06:22:07;;;;;;;46.47;16.40;;;;;;;4.04;68.67;98874.56;5116337;27;20216;-86
2021/12/09 06:24:32;;;;;;;31.30;14.07;;;;;;;4.13;68.73;98882.06;5134488;27;20183;-85
2021/12/09 06:26:59;;;;;;;26.70;12.87;;;;;;;4.35;68.80;98879.63;5134375;27;20246;-85
2021/12/09 06:29:25;;;;;;;19.83;9.13;;;;;;;4.60;68.60;98890.09;5134284;27;20193;-86
2021/12/09 06:31:50;;;;;;;22.93;10.70;;;;;;;4.91;68.36;98890.78;5134254;27;20175;-85
2021/12/09 06:34:15;;;;;;;23.80;8.83;;;;;;;5.55;67.82;98894.56;5116171;27;20167;-86
2021/12/09 06:36:41;;;;;;;35.80;9.83;;;;;;;6.17;65.89;98900.06;5116200;28;20320;-86
2021/12/09 06:39:07;;;;;;;28.13;11.67;;;;;;;6.54;63.28;98904.66;5134218;28;20258;-86
2021/12/09 06:41:32;;;;;;;27.47;10.43;;;;;;;6.56;61.87;98919.31;5116177;28;20260;-86
2021/12/09 06:43:58;;;;;;;22.17;11.40;;;;;;;6.57;62.15;98926.22;5134208;28;20175;-91
2021/12/09 06:46:24;;;;;;;18.60;7.83;;;;;;;6.72;62.36;98922.16;5116093;28;20239;-86
2021/12/09 06:48:50;;;;;;;20.07;9.70;;;;;;;6.88;62.05;98930.19;5116112;28;20185;-86
2021/12/09 06:51:16;;;;;;;16.73;8.23;;;;;;;7.00;61.98;98929.66;5115969;28;20201;-86
2021/12/09 06:53:42;;;;;;;16.23;6.30;;;;;;;7.09;62.33;98934.50;5116074;28;20171;-86
2021/12/09 06:56:07;;;;;;;17.73;7.27;;;;;;;7.31;62.26;98935.31;5134070;28;20175;-86
2021/12/09 06:58:33;;;;;;;15.80;7.47;;;;;;;7.39;61.51;98933.22;5134018;28;20163;-86
2021/12/09 07:01:00;;;;;;;21.23;7.40;;;;;;;7.53;61.34;98925.66;5115961;28;20167;-86
2021/12/09 07:03:26;;;;;;;17.87;7.30;;;;;;;7.74;60.40;98927.31;5134229;28;20186;-87
2021/12/09 07:05:52;;;;;;;24.20;10.00;;;;;;;7.94;60.14;98915.97;5115890;28;20575;-86
2021/12/09 07:08:19;;;;;;;16.77;8.20;;;;;;;8.20;60.24;98920.00;5133985;28;20171;-86
2021/12/09 07:10:45;;;;;;;19.67;7.70;;;;;;;8.21;59.61;98919.06;5134155;28;20240;-86
2021/12/09 07:13:11;;;;;;;21.23;9.50;;;;;;;8.22;59.43;98919.03;5133875;28;20593;-86
2021/12/09 07:15:37;;;;;;;20.23;9.87;;;;;;;8.07;60.02;98922.31;5135090;27;20175;-86
2021/12/09 07:18:03;;;;;;;24.20;10.07;;;;;;;7.87;59.72;98909.34;5119751;27;20206;-86
2021/12/09 07:20:29;;;;;;;21.87;10.50;;;;;;;7.73;60.49;98923.00;5119643;27;20183;-86
2021/12/09 07:22:55;;;;;;;31.60;14.50;;;;;;;7.59;61.29;98914.94;5119485;27;20589;-86
2021/12/09 07:25:23;;;;;;;38.33;15.63;;;;;;;7.40;61.88;98914.06;5138003;27;20147;-86
2021/12/09 07:27:49;;;;;;;30.43;15.87;;;;;;;7.28;62.34;98914.59;5137649;27;20230;-86
2021/12/09 07:30:17;;;;;;;28.70;13.20;;;;;;;7.28;63.18;98925.03;5137546;27;20198;-87
2021/12/09 07:32:43;;;;;;;32.80;15.63;;;;;;;7.30;62.91;98925.78;5137539;27;20167;-86
2021/12/09 07:35:09;;;;;;;27.83;11.97;;;;;;;7.16;63.75;98920.31;5137829;27;20167;-86
2021/12/09 07:37:37;;;;;;;29.07;13.23;;;;;;;7.04;63.73;98908.66;5137493;27;20175;-86
2021/12/09 07:40:06;;;;;;;31.70;13.20;;;;;;;7.00;64.48;98914.88;5119404;27;20189;-87
2021/12/09 07:42:31;;;;;;;32.10;13.67;;;;;;;7.03;64.42;98919.97;5119291;27;20175;-87
2021/12/09 07:44:57;;;;;;;36.27;13.80;;;;;;;7.00;64.66;98924.47;5137326;27;20741;-88
2021/12/09 07:47:22;;;;;;;26.23;12.23;;;;;;;7.02;65.90;98922.66;5137332;27;20170;-87
2021/12/09 07:49:48;;;;;;;30.80;15.13;;;;;;;7.06;65.01;98924.22;5137219;27;20251;-89
2021/12/09 07:52:13;;;;;;;28.50;13.53;;;;;;;7.10;64.28;98926.63;5119449;27;20642;-88
2021/12/09 07:54:39;;;;;;;25.83;12.40;;;;;;;7.12;64.47;98924.81;5137179;27;20171;-88
2021/12/09 07:57:04;;;;;;;31.07;11.43;;;;;;;7.09;65.55;98919.72;5137147;27;20198;-87
2021/12/09 07:59:30;;;;;;;28.83;11.57;;;;;;;7.07;65.89;98920.72;5137048;27;20178;-88
2021/12/09 08:01:55;;;;;;;26.13;13.20;;;;;;;7.19;66.86;98922.78;5118931;27;20247;-87
2021/12/09 08:04:21;;;;;;;26.40;13.23;;;;;;;7.28;65.60;98920.66;5118875;27;20167;-88
2021/12/09 08:06:46;;;;;;;30.73;11.73;;;;;;;7.27;65.76;98924.16;5136928;27;20170;-87
2021/12/09 08:09:12;;;;;;;29.83;14.97;;;;;;;7.48;66.18;98921.53;5136858;27;20198;-88
2021/12/09 08:11:40;;;;;;;20.47;11.13;;;;;;;7.52;65.62;98917.91;5118708;27;20639;-88
2021/12/09 08:14:07;;;;;;;27.87;11.87;;;;;;;7.67;65.38;98910.25;5118666;27;20178;-87
2021/12/09 08:16:37;;;;;;;21.43;10.37;;;;;;;7.81;65.18;98893.94;5118674;27;20267;-87
2021/12/09 08:19:08;;;;;;;32.73;12.07;;;;;;;7.85;65.10;98900.75;5137349;27;20156;-88
2021/12/09 08:21:36;;;;;;;21.47;10.27;;;;;;;7.94;65.40;98895.94;5118528;27;20593;-87
2021/12/09 08:24:03;;;;;;;18.43;9.40;;;;;;;7.98;65.04;98891.44;5136635;27;20183;-87
2021/12/09 08:26:29;;;;;;;21.47;9.70;;;;;;;7.65;63.44;98904.22;5136742;27;20539;-88
2021/12/09 08:28:54;;;;;;;16.10;7.20;;;;;;;7.89;65.02;98892.69;5118277;27;20182;-87
2021/12/09 08:31:20;;;;;;;13.67;7.00;;;;;;;8.11;65.71;98892.56;5136369;27;20540;-87
2021/12/09 08:33:46;;;;;;;11.77;4.63;;;;;;;8.23;63.75;98885.94;5136718;27;20525;-86
2021/12/09 08:36:11;;;;;;;15.67;6.70;;;;;;;8.13;63.80;98895.09;5136372;27;20250;-86
2021/12/09 08:38:37;;;;;;;13.80;5.40;;;;;;;8.09;60.84;98889.19;5118194;27;20679;-86
2021/12/09 08:41:03;;;;;;;10.90;6.33;;;;;;;8.14;60.07;98874.16;5136307;27;20641;-87
2021/12/09 08:43:29;;;;;;;7.73;4.53;;;;;;;8.24;60.03;98877.16;5118190;27;20643;-87
2021/12/09 08:45:54;;;;;;;10.63;4.27;;;;;;;8.17;59.43;98873.16;5118027;27;20291;-87
2021/12/09 08:48:22;;;;;;;13.47;5.00;;;;;;;8.28;60.37;98873.53;5136151;27;20243;-87
2021/12/09 08:50:48;;;;;;;12.87;5.10;;;;;;;8.49;59.44;98873.34;5117893;27;20200;-87
2021/12/09 08:53:19;;;;;;;8.50;3.97;;;;;;;8.59;58.55;98869.34;5117956;27;20167;-87
2021/12/09 08:55:44;;;;;;;10.63;5.30;;;;;;;8.58;59.08;98866.84;5117909;27;20317;-87
2021/12/09 08:58:11;;;;;;;10.10;3.57;;;;;;;8.57;57.70;98865.13;5135951;27;20259;-87
2021/12/09 09:00:37;;;;;;;9.50;3.67;;;;;;;8.57;58.35;98867.75;5136434;27;20163;-87
2021/12/09 09:03:04;;;;;;;11.23;5.40;;;;;;;8.69;58.27;98859.31;5135878;27;20176;-88
2021/12/09 09:05:32;;;;;;;6.80;3.17;;;;;;;8.63;57.78;98850.00;5117669;27;20543;-87
2021/12/09 09:07:58;;;;;;;9.00;4.20;;;;;;;8.57;59.07;98850.31;5135755;27;20528;-87
2021/12/09 09:10:30;;;;;;;11.47;3.90;;;;;;;8.58;58.88;98836.34;5135609;27;20320;-86
2021/12/09 09:12:55;;;;;;;9.00;4.23;;;;;;;8.65;59.43;98831.63;5135978;27;20588;-87
2021/12/09 09:15:24;;;;;;;11.23;5.03;;;;;;;8.69;58.79;98838.41;5135577;27;20201;-88
2021/12/09 09:17:50;;;;;;;15.37;5.60;;;;;;;9.03;59.13;98835.81;5135580;27;20167;-87
2021/12/09 09:20:19;;;;;;;12.60;5.60;;;;;;;9.01;59.26;98835.03;5135524;27;20208;-87
2021/12/09 09:22:46;;;;;;;17.20;5.43;;;;;;;8.87;58.06;98829.66;5135424;27;20193;-87
2021/12/09 09:25:17;;;;;;;11.63;5.47;;;;;;;8.97;59.40;98823.03;5117222;27;20187;-88
2021/12/09 09:27:44;;;;;;;10.63;5.00;;;;;;;9.22;59.08;98820.84;5117298;27;20163;-88
2021/12/09 09:30:14;;;;;;;12.73;4.63;;;;;;;9.30;59.01;98817.84;5135476;27;20284;-87
2021/12/09 09:32:39;;;;;;;16.50;5.70;;;;;;;9.32;58.55;98815.13;5135273;27;20536;-87
2021/12/09 09:35:05;;;;;;;13.83;6.27;;;;;;;9.43;58.53;98820.66;5117175;27;20178;-87
2021/12/09 09:37:31;;;;;;;14.13;5.83;;;;;;;9.50;58.03;98806.31;5135428;27;20174;-87
2021/12/09 09:39:56;;;;;;;15.63;5.93;;;;;;;9.62;59.23;98800.41;5116106;27;20182;-88
2021/12/09 09:42:55;;;;;;;14.97;6.00;;;;;;;9.82;58.83;98787.09;5135074;27;20178;-87
2021/12/09 09:45:19;;;;;;;13.20;5.43;;;;;;;10.07;59.05;98787.41;5134738;27;20185;-87
2021/12/09 09:47:45;;;;;;;17.40;7.50;;;;;;;10.10;58.35;98786.41;5134932;27;20179;-87
2021/12/09 09:50:11;;;;;;;15.63;7.20;;;;;;;10.14;57.75;98783.53;5116698;27;20197;-88
2021/12/09 09:52:37;;;;;;;12.70;6.47;;;;;;;10.12;58.12;98785.41;5116792;27;20182;-88
2021/12/09 09:55:08;;;;;;;19.03;7.70;;;;;;;10.07;57.49;98782.19;5135135;27;20624;-88
2021/12/09 09:57:34;;;;;;;14.70;6.63;;;;;;;10.27;58.18;98774.06;5116742;27;20234;-89
2021/12/09 09:59:59;;;;;;;17.73;7.40;;;;;;;10.49;57.12;98769.28;5135306;27;20167;-90
2021/12/09 10:02:25;;;;;;;15.00;6.53;;;;;;;10.60;56.70;98766.06;5116641;27;20242;-89
2021/12/09 10:05:00;;;;;;;17.63;7.10;;;;;;;10.51;56.90;98771.00;5117091;27;20185;-89
2021/12/09 10:07:27;;;;;;;13.60;7.07;;;;;;;10.54;56.64;98765.56;5117733;27;20166;-88
2021/12/09 10:09:53;;;;;;;18.70;6.77;;;;;;;10.27;57.27;98770.63;5134791;27;20215;-91
2021/12/09 10:12:20;;;;;;;21.80;8.33;;;;;;;10.38;57.01;98776.06;5116707;27;20185;-90
2021/12/09 10:14:48;;;;;;;17.37;6.57;;;;;;;10.53;57.13;98771.75;5116862;27;20274;-90
2021/12/09 10:17:16;;;;;;;20.13;9.30;;;;;;;10.62;57.43;98758.94;5134474;27;20163;-92
2021/12/09 10:19:55;;;;;;;19.10;6.73;;;;;;;10.86;57.35;98762.75;5134770;27;20171;-90
2021/12/09 10:22:24;;;;;;;15.50;6.50;;;;;;;10.96;55.80;98760.41;5135026;27;20177;-90
2021/12/09 10:24:53;;;;;;;24.57;8.20;;;;;;;10.96;56.11;98757.78;5116459;27;20186;-90
2021/12/09 10:27:24;;;;;;;18.80;7.97;;;;;;;11.14;55.87;98756.66;5134438;27;20298;-90
2021/12/09 10:29:55;;;;;;;15.87;6.43;;;;;;;11.41;54.37;98751.50;5116240;28;20279;-90
2021/12/09 10:32:27;;;;;;;11.37;6.37;;;;;;;11.26;54.29;98753.31;5134304;27;20179;-90
2021/12/09 10:34:52;;;;;;;19.07;7.60;;;;;;;11.46;54.53;98741.56;5134661;27;20151;-90
2021/12/09 10:37:22;;;;;;;16.80;7.13;;;;;;;11.37;53.84;98750.03;5116215;28;20182;-87
2021/12/09 10:39:59;;;;;;;17.30;6.20;;;;;;;11.63;53.44;98742.19;5116166;28;20261;-87
2021/12/09 10:42:31;;;;;;;10.93;5.10;;;;;;;11.75;53.45;98737.13;5116080;28;20624;-87
2021/12/09 10:45:08;;;;;;;14.57;6.90;;;;;;;11.91;52.57;98729.97;5134150;28;20608;-87
2021/12/09 10:47:58;;;;;;;14.67;6.33;;;;;;;12.07;53.33;98728.03;5134492;28;20191;-87
2021/12/09 10:53:30;;;;;;;14.03;6.83;;;;;;;12.33;52.23;98729.81;5138964;27;20479;-86
2021/12/09 10:56:11;;;;;;;14.57;7.50;;;;;;;12.45;51.42;98718.47;5138059;27;20187;-87
2021/12/09 10:58:46;;;;;;;16.77;7.57;;;;;;;12.32;51.50;98718.44;5120196;27;20166;-87
2021/12/09 11:01:20;;;;;;;16.17;7.30;;;;;;;12.24;51.37;98720.72;5138790;27;20487;-88
2021/12/09 11:03:53;;;;;;;15.87;7.57;;;;;;;11.90;52.08;98723.03;5138552;27;20152;-87
2021/12/09 11:06:28;;;;;;;14.73;6.43;;;;;;;11.82;52.67;98715.63;5120075;27;20170;-87
2021/12/09 11:08:55;;;;;;;15.00;6.17;;;;;;;11.87;52.67;98710.94;5119990;27;20200;-87
2021/12/09 11:11:34;;;;;;;15.77;7.53;;;;;;;11.62;53.54;98711.66;5119871;27;20251;-87
2021/12/09 11:14:21;;;;;;;11.80;6.30;;;;;;;11.63;53.10;98702.81;5137912;27;20167;-86
2021/12/09 11:17:02;;;;;;;10.07;5.70;;;;;;;11.66;52.91;98696.56;5119830;27;20174;-87
2021/12/09 11:22:07;;;;;;;18.80;7.30;;;;;;;11.34;52.77;98679.38;5137817;27;20175;-87
2021/12/09 11:24:38;;;;;;;14.20;7.17;;;;;;;11.35;53.11;98676.63;5137894;27;20187;-87
2021/12/09 11:27:07;;;;;;;14.07;6.27;;;;;;;11.09;53.61;98680.03;5138069;27;20234;-88
2021/12/09 11:29:42;;;;;;;17.73;7.07;;;;;;;11.22;54.17;98677.50;5137888;27;20526;-88
2021/12/09 11:32:38;;;;;;;18.10;6.60;;;;;;;11.30;54.38;98683.09;5138231;27;20186;-87
2021/12/09 11:35:14;;;;;;;16.70;6.87;;;;;;;11.43;53.44;98690.13;5137896;27;20155;-87
2021/12/09 11:38:06;;;;;;;12.47;6.07;;;;;;;11.62;53.15;98680.16;5137559;27;20159;-88
2021/12/09 11:40:41;;;;;;;17.80;8.07;;;;;;;11.49;52.96;98687.13;5119424;27;20303;-88
2021/12/09 11:43:10;;;;;;;12.43;6.87;;;;;;;11.53;54.17;98691.22;5119377;27;20261;-87